sensor_id;sensor_type;location;lat;lon;timestamp;pressure;altitude;pressure_sealevel;temperature;humidity
28588;BME280;15787;49.662;10.162;2023-01-30T00:00:26;99691.47;;;-1.31;96.21
28588;BME280;15787;49.662;10.162;2023-01-30T00:02:59;99711.31;;;-1.34;96.28
28588;BME280;15787;49.662;10.162;2023-01-30T00:05:32;99706.28;;;-1.32;96.84
28588;BME280;15787;49.662;10.162;2023-01-30T00:08:05;99711.13;;;-1.29;97.03
28588;BME280;15787;49.662;10.162;2023-01-30T00:10:38;99706.59;;;-1.45;97.48
28588;BME280;15787;49.662;10.162;2023-01-30T00:13:13;99718.13;;;-1.40;97.62
28588;BME280;15787;49.662;10.162;2023-01-30T00:15:47;99730.84;;;-1.35;97.69
28588;BME280;15787;49.662;10.162;2023-01-30T00:18:20;99725.63;;;-1.28;98.17
28588;BME280;15787;49.662;10.162;2023-01-30T00:20:56;99724.91;;;-1.04;97.89
28588;BME280;15787;49.662;10.162;2023-01-30T00:23:31;99727.94;;;-1.18;98.02
28588;BME280;15787;49.662;10.162;2023-01-30T00:26:05;99732.75;;;-1.15;98.22
28588;BME280;15787;49.662;10.162;2023-01-30T00:28:40;99720.00;;;-0.99;97.94
28588;BME280;15787;49.662;10.162;2023-01-30T00:31:12;99717.59;;;-1.00;98.32
28588;BME280;15787;49.662;10.162;2023-01-30T00:33:45;99714.44;;;-0.90;97.61
28588;BME280;15787;49.662;10.162;2023-01-30T00:36:18;99722.09;;;-0.84;97.99
28588;BME280;15787;49.662;10.162;2023-01-30T00:38:51;99712.38;;;-0.93;97.78
28588;BME280;15787;49.662;10.162;2023-01-30T00:41:24;99709.56;;;-0.60;97.44
28588;BME280;15787;49.662;10.162;2023-01-30T00:44:19;99693.31;;;-0.78;97.26
28588;BME280;15787;49.662;10.162;2023-01-30T00:47:09;99685.81;;;-0.56;97.54
28588;BME280;15787;49.662;10.162;2023-01-30T00:49:42;99680.56;;;-0.49;97.57
28588;BME280;15787;49.662;10.162;2023-01-30T00:52:15;99670.75;;;-0.38;96.75
28588;BME280;15787;49.662;10.162;2023-01-30T00:54:48;99659.53;;;-0.33;96.74
28588;BME280;15787;49.662;10.162;2023-01-30T00:57:22;99662.84;;;-0.40;96.50
28588;BME280;15787;49.662;10.162;2023-01-30T00:59:56;99671.06;;;-0.40;97.00
28588;BME280;15787;49.662;10.162;2023-01-30T01:02:29;99656.44;;;-0.32;96.36
28588;BME280;15787;49.662;10.162;2023-01-30T01:05:02;99656.69;;;-0.49;97.01
28588;BME280;15787;49.662;10.162;2023-01-30T01:07:35;99650.81;;;-0.35;96.88
28588;BME280;15787;49.662;10.162;2023-01-30T01:10:09;99645.56;;;-0.40;97.48
28588;BME280;15787;49.662;10.162;2023-01-30T01:12:48;99642.94;;;-0.37;97.63
28588;BME280;15787;49.662;10.162;2023-01-30T01:15:25;99645.00;;;-0.34;98.48
28588;BME280;15787;49.662;10.162;2023-01-30T01:17:58;99627.06;;;-0.31;98.90
28588;BME280;15787;49.662;10.162;2023-01-30T01:20:31;99623.75;;;-0.37;99.74
28588;BME280;15787;49.662;10.162;2023-01-30T01:23:03;99610.63;;;-0.43;100.00
28588;BME280;15787;49.662;10.162;2023-01-30T01:25:36;99624.00;;;-0.54;100.00
28588;BME280;15787;49.662;10.162;2023-01-30T01:28:10;99606.47;;;-0.37;100.00
28588;BME280;15787;49.662;10.162;2023-01-30T01:30:44;99595.84;;;-0.39;100.00
28588;BME280;15787;49.662;10.162;2023-01-30T01:33:17;99587.13;;;-0.17;100.00
28588;BME280;15787;49.662;10.162;2023-01-30T01:35:50;99582.50;;;-0.13;100.00
28588;BME280;15787;49.662;10.162;2023-01-30T01:38:26;99590.31;;;-0.15;100.00
28588;BME280;15787;49.662;10.162;2023-01-30T01:40:59;99572.75;;;-0.38;100.00
28588;BME280;15787;49.662;10.162;2023-01-30T01:43:59;99560.06;;;-0.42;100.00
28588;BME280;15787;49.662;10.162;2023-01-30T01:46:36;99572.00;;;-0.11;100.00
28588;BME280;15787;49.662;10.162;2023-01-30T01:49:13;99569.53;;;-0.28;100.00
28588;BME280;15787;49.662;10.162;2023-01-30T01:51:51;99569.19;;;-0.26;100.00
28588;BME280;15787;49.662;10.162;2023-01-30T01:54:30;99553.38;;;-0.17;100.00
28588;BME280;15787;49.662;10.162;2023-01-30T01:57:09;99540.06;;;-0.31;100.00
28588;BME280;15787;49.662;10.162;2023-01-30T01:59:48;99548.72;;;-0.29;100.00
28588;BME280;15787;49.662;10.162;2023-01-30T02:02:24;99522.34;;;-0.33;100.00
28588;BME280;15787;49.662;10.162;2023-01-30T02:04:58;99523.88;;;-0.20;100.00
28588;BME280;15787;49.662;10.162;2023-01-30T02:07:40;99525.13;;;-0.18;100.00
28588;BME280;15787;49.662;10.162;2023-01-30T02:10:18;99543.56;;;-0.18;100.00
28588;BME280;15787;49.662;10.162;2023-01-30T02:12:52;99547.94;;;-0.29;100.00
28588;BME280;15787;49.662;10.162;2023-01-30T02:15:25;99549.69;;;-0.09;100.00
28588;BME280;15787;49.662;10.162;2023-01-30T02:18:00;99538.03;;;-0.06;100.00
28588;BME280;15787;49.662;10.162;2023-01-30T02:20:50;99527.38;;;-0.08;100.00
28588;BME280;15787;49.662;10.162;2023-01-30T02:24:09;99523.38;;;-0.10;100.00
28588;BME280;15787;49.662;10.162;2023-01-30T02:27:06;99542.22;;;0.04;99.91
28588;BME280;15787;49.662;10.162;2023-01-30T02:30:11;99527.34;;;0.05;99.79
28588;BME280;15787;49.662;10.162;2023-01-30T02:32:57;99510.00;;;0.16;99.56
28588;BME280;15787;49.662;10.162;2023-01-30T02:35:41;99512.69;;;0.00;99.14
28588;BME280;15787;49.662;10.162;2023-01-30T02:38:30;99511.56;;;0.02;99.46
28588;BME280;15787;49.662;10.162;2023-01-30T02:41:16;99511.44;;;0.10;98.99
28588;BME280;15787;49.662;10.162;2023-01-30T02:43:58;99506.44;;;0.00;98.79
28588;BME280;15787;49.662;10.162;2023-01-30T02:46:41;99508.22;;;0.08;98.92
28588;BME280;15787;49.662;10.162;2023-01-30T02:49:22;99503.97;;;0.11;99.22
28588;BME280;15787;49.662;10.162;2023-01-30T02:51:59;99483.44;;;0.20;99.35
28588;BME280;15787;49.662;10.162;2023-01-30T02:54:32;99479.16;;;0.07;99.65
28588;BME280;15787;49.662;10.162;2023-01-30T02:57:16;99472.81;;;0.19;99.92
28588;BME280;15787;49.662;10.162;2023-01-30T02:59:54;99454.84;;;0.37;100.00
28588;BME280;15787;49.662;10.162;2023-01-30T03:02:47;99445.19;;;0.43;100.00
28588;BME280;15787;49.662;10.162;2023-01-30T03:05:47;99445.53;;;0.26;100.00
28588;BME280;15787;49.662;10.162;2023-01-30T03:08:31;99452.19;;;0.25;100.00
28588;BME280;15787;49.662;10.162;2023-01-30T03:11:06;99461.94;;;0.22;100.00
28588;BME280;15787;49.662;10.162;2023-01-30T03:13:46;99469.25;;;0.18;100.00
28588;BME280;15787;49.662;10.162;2023-01-30T03:16:25;99460.97;;;0.30;100.00
28588;BME280;15787;49.662;10.162;2023-01-30T03:19:00;99476.53;;;0.26;100.00
28588;BME280;15787;49.662;10.162;2023-01-30T03:21:40;99464.59;;;0.34;100.00
28588;BME280;15787;49.662;10.162;2023-01-30T03:24:15;99462.91;;;0.30;100.00
28588;BME280;15787;49.662;10.162;2023-01-30T03:26:53;99456.88;;;0.40;100.00
28588;BME280;15787;49.662;10.162;2023-01-30T03:29:28;99454.31;;;0.47;100.00
28588;BME280;15787;49.662;10.162;2023-01-30T03:32:01;99460.69;;;0.51;100.00
28588;BME280;15787;49.662;10.162;2023-01-30T03:34:34;99463.25;;;0.44;100.00
28588;BME280;15787;49.662;10.162;2023-01-30T03:37:09;99457.78;;;0.59;100.00
28588;BME280;15787;49.662;10.162;2023-01-30T03:39:42;99458.41;;;0.69;100.00
28588;BME280;15787;49.662;10.162;2023-01-30T03:42:18;99470.69;;;0.43;100.00
28588;BME280;15787;49.662;10.162;2023-01-30T03:44:51;99462.13;;;0.45;100.00
28588;BME280;15787;49.662;10.162;2023-01-30T03:47:24;99469.56;;;0.44;100.00
28588;BME280;15787;49.662;10.162;2023-01-30T03:49:58;99466.97;;;0.51;100.00
28588;BME280;15787;49.662;10.162;2023-01-30T03:52:34;99456.44;;;0.53;100.00
28588;BME280;15787;49.662;10.162;2023-01-30T03:55:13;99456.91;;;0.55;100.00
28588;BME280;15787;49.662;10.162;2023-01-30T03:57:46;99454.50;;;0.54;99.89
28588;BME280;15787;49.662;10.162;2023-01-30T04:00:22;99459.91;;;0.35;99.92
28588;BME280;15787;49.662;10.162;2023-01-30T04:02:56;99446.44;;;0.45;99.94
28588;BME280;15787;49.662;10.162;2023-01-30T04:05:29;99460.19;;;0.61;99.68
28588;BME280;15787;49.662;10.162;2023-01-30T04:08:09;99452.53;;;0.39;99.18
28588;BME280;15787;49.662;10.162;2023-01-30T04:10:42;99439.97;;;0.38;99.66
28588;BME280;15787;49.662;10.162;2023-01-30T04:13:15;99442.53;;;0.46;99.18
28588;BME280;15787;49.662;10.162;2023-01-30T04:15:47;99442.19;;;0.48;99.32
28588;BME280;15787;49.662;10.162;2023-01-30T04:18:49;99446.06;;;0.31;99.15
28588;BME280;15787;49.662;10.162;2023-01-30T04:21:24;99441.72;;;0.46;99.47
28588;BME280;15787;49.662;10.162;2023-01-30T04:23:58;99427.66;;;0.47;99.97
28588;BME280;15787;49.662;10.162;2023-01-30T04:26:31;99435.50;;;0.33;99.40
28588;BME280;15787;49.662;10.162;2023-01-30T04:29:05;99430.28;;;0.44;99.41
28588;BME280;15787;49.662;10.162;2023-01-30T04:31:40;99436.84;;;0.55;99.06
28588;BME280;15787;49.662;10.162;2023-01-30T04:34:22;99434.53;;;0.57;98.94
28588;BME280;15787;49.662;10.162;2023-01-30T04:36:56;99433.69;;;0.53;98.27
28588;BME280;15787;49.662;10.162;2023-01-30T04:39:30;99435.69;;;0.56;97.68
28588;BME280;15787;49.662;10.162;2023-01-30T04:42:03;99436.06;;;0.54;97.22
28588;BME280;15787;49.662;10.162;2023-01-30T04:44:43;99427.00;;;0.54;97.30
28588;BME280;15787;49.662;10.162;2023-01-30T04:47:21;99421.19;;;0.55;97.54
28588;BME280;15787;49.662;10.162;2023-01-30T04:49:54;99412.56;;;0.57;97.54
28588;BME280;15787;49.662;10.162;2023-01-30T04:52:27;99409.53;;;0.62;96.78
28588;BME280;15787;49.662;10.162;2023-01-30T04:55:04;99407.50;;;0.59;96.68
28588;BME280;15787;49.662;10.162;2023-01-30T04:57:36;99398.94;;;0.45;96.94
28588;BME280;15787;49.662;10.162;2023-01-30T05:00:10;99394.75;;;0.51;96.94
28588;BME280;15787;49.662;10.162;2023-01-30T05:02:50;99402.00;;;0.75;96.91
28588;BME280;15787;49.662;10.162;2023-01-30T05:05:24;99387.94;;;0.60;97.26
28588;BME280;15787;49.662;10.162;2023-01-30T05:07:57;99396.97;;;0.61;97.63
28588;BME280;15787;49.662;10.162;2023-01-30T05:10:31;99387.22;;;0.63;97.82
28588;BME280;15787;49.662;10.162;2023-01-30T05:13:05;99379.50;;;0.53;98.96
28588;BME280;15787;49.662;10.162;2023-01-30T05:15:38;99370.75;;;0.63;98.92
28588;BME280;15787;49.662;10.162;2023-01-30T05:18:11;99358.59;;;0.49;99.71
28588;BME280;15787;49.662;10.162;2023-01-30T05:20:44;99363.22;;;0.45;99.89
28588;BME280;15787;49.662;10.162;2023-01-30T05:23:17;99368.78;;;0.48;99.81
28588;BME280;15787;49.662;10.162;2023-01-30T05:25:52;99360.47;;;0.45;100.00
28588;BME280;15787;49.662;10.162;2023-01-30T05:28:25;99359.06;;;0.35;100.00
28588;BME280;15787;49.662;10.162;2023-01-30T05:31:00;99355.47;;;0.66;99.99
28588;BME280;15787;49.662;10.162;2023-01-30T05:33:33;99346.34;;;0.62;100.00
28588;BME280;15787;49.662;10.162;2023-01-30T05:36:07;99345.00;;;0.56;99.96
28588;BME280;15787;49.662;10.162;2023-01-30T05:38:45;99343.25;;;0.63;99.87
28588;BME280;15787;49.662;10.162;2023-01-30T05:41:19;99339.97;;;0.58;99.58
28588;BME280;15787;49.662;10.162;2023-01-30T05:43:52;99328.66;;;0.44;100.00
28588;BME280;15787;49.662;10.162;2023-01-30T05:46:25;99325.00;;;0.55;99.91
28588;BME280;15787;49.662;10.162;2023-01-30T05:48:58;99333.34;;;0.43;99.96
28588;BME280;15787;49.662;10.162;2023-01-30T05:51:31;99331.50;;;0.47;100.00
28588;BME280;15787;49.662;10.162;2023-01-30T05:54:04;99326.81;;;0.48;100.00
28588;BME280;15787;49.662;10.162;2023-01-30T05:56:39;99327.84;;;0.43;100.00
28588;BME280;15787;49.662;10.162;2023-01-30T05:59:11;99341.59;;;0.43;100.00
28588;BME280;15787;49.662;10.162;2023-01-30T06:01:46;99335.75;;;0.45;99.84
28588;BME280;15787;49.662;10.162;2023-01-30T06:04:19;99343.38;;;0.36;99.78
28588;BME280;15787;49.662;10.162;2023-01-30T06:06:52;99336.72;;;0.37;100.00
28588;BME280;15787;49.662;10.162;2023-01-30T06:09:24;99339.84;;;0.35;99.94
28588;BME280;15787;49.662;10.162;2023-01-30T06:11:59;99332.84;;;0.22;100.00
28588;BME280;15787;49.662;10.162;2023-01-30T06:14:31;99335.22;;;0.24;100.00
28588;BME280;15787;49.662;10.162;2023-01-30T06:17:04;99334.91;;;0.25;100.00
28588;BME280;15787;49.662;10.162;2023-01-30T06:19:37;99332.66;;;0.31;100.00
28588;BME280;15787;49.662;10.162;2023-01-30T06:22:10;99345.50;;;0.27;100.00
28588;BME280;15787;49.662;10.162;2023-01-30T06:24:43;99350.72;;;0.32;100.00
28588;BME280;15787;49.662;10.162;2023-01-30T06:27:17;99349.88;;;0.28;100.00
28588;BME280;15787;49.662;10.162;2023-01-30T06:29:50;99368.81;;;0.33;100.00
28588;BME280;15787;49.662;10.162;2023-01-30T06:32:23;99363.22;;;0.29;100.00
28588;BME280;15787;49.662;10.162;2023-01-30T06:34:56;99364.34;;;0.44;100.00
28588;BME280;15787;49.662;10.162;2023-01-30T06:37:28;99355.53;;;0.35;100.00
28588;BME280;15787;49.662;10.162;2023-01-30T06:40:01;99343.72;;;0.34;100.00
28588;BME280;15787;49.662;10.162;2023-01-30T06:42:36;99351.97;;;0.34;100.00
28588;BME280;15787;49.662;10.162;2023-01-30T06:45:09;99357.28;;;0.43;99.86
28588;BME280;15787;49.662;10.162;2023-01-30T06:47:46;99342.22;;;0.37;99.93
28588;BME280;15787;49.662;10.162;2023-01-30T06:50:20;99342.06;;;0.30;99.79
28588;BME280;15787;49.662;10.162;2023-01-30T06:52:53;99335.41;;;0.31;100.00
28588;BME280;15787;49.662;10.162;2023-01-30T06:55:26;99325.75;;;0.37;99.90
28588;BME280;15787;49.662;10.162;2023-01-30T06:58:02;99316.97;;;0.31;99.94
28588;BME280;15787;49.662;10.162;2023-01-30T07:00:37;99321.66;;;0.31;99.90
28588;BME280;15787;49.662;10.162;2023-01-30T07:03:11;99314.31;;;0.35;99.91
28588;BME280;15787;49.662;10.162;2023-01-30T07:05:46;99316.09;;;0.27;99.93
28588;BME280;15787;49.662;10.162;2023-01-30T07:08:19;99303.19;;;0.28;100.00
28588;BME280;15787;49.662;10.162;2023-01-30T07:10:54;99310.94;;;0.26;100.00
28588;BME280;15787;49.662;10.162;2023-01-30T07:13:29;99325.84;;;0.40;100.00
28588;BME280;15787;49.662;10.162;2023-01-30T07:16:01;99304.19;;;0.39;100.00
28588;BME280;15787;49.662;10.162;2023-01-30T07:18:34;99305.81;;;0.40;100.00
28588;BME280;15787;49.662;10.162;2023-01-30T07:21:07;99298.44;;;0.44;100.00
28588;BME280;15787;49.662;10.162;2023-01-30T07:23:40;99300.38;;;0.43;100.00
28588;BME280;15787;49.662;10.162;2023-01-30T07:26:14;99315.25;;;0.58;100.00
28588;BME280;15787;49.662;10.162;2023-01-30T07:28:48;99313.94;;;0.52;100.00
28588;BME280;15787;49.662;10.162;2023-01-30T07:31:21;99298.69;;;0.54;100.00
28588;BME280;15787;49.662;10.162;2023-01-30T07:33:54;99295.84;;;0.51;100.00
28588;BME280;15787;49.662;10.162;2023-01-30T07:36:27;99303.03;;;0.55;100.00
28588;BME280;15787;49.662;10.162;2023-01-30T07:39:00;99306.31;;;0.61;99.90
28588;BME280;15787;49.662;10.162;2023-01-30T07:41:33;99305.41;;;0.57;100.00
28588;BME280;15787;49.662;10.162;2023-01-30T07:44:07;99306.31;;;0.61;100.00
28588;BME280;15787;49.662;10.162;2023-01-30T07:46:40;99284.22;;;0.57;100.00
28588;BME280;15787;49.662;10.162;2023-01-30T07:49:13;99285.97;;;0.66;100.00
28588;BME280;15787;49.662;10.162;2023-01-30T07:51:46;99287.78;;;0.58;100.00
28588;BME280;15787;49.662;10.162;2023-01-30T07:54:19;99295.03;;;0.66;100.00
28588;BME280;15787;49.662;10.162;2023-01-30T07:56:52;99276.13;;;0.64;100.00
28588;BME280;15787;49.662;10.162;2023-01-30T07:59:26;99272.66;;;0.68;100.00
28588;BME280;15787;49.662;10.162;2023-01-30T08:01:59;99278.31;;;0.55;100.00
28588;BME280;15787;49.662;10.162;2023-01-30T08:04:32;99288.63;;;0.62;100.00
28588;BME280;15787;49.662;10.162;2023-01-30T08:07:05;99282.00;;;0.63;100.00
28588;BME280;15787;49.662;10.162;2023-01-30T08:09:37;99296.31;;;0.53;100.00
28588;BME280;15787;49.662;10.162;2023-01-30T08:12:10;99281.91;;;0.59;100.00
28588;BME280;15787;49.662;10.162;2023-01-30T08:14:44;99303.59;;;0.64;100.00
28588;BME280;15787;49.662;10.162;2023-01-30T08:17:17;99311.34;;;0.59;100.00
28588;BME280;15787;49.662;10.162;2023-01-30T08:19:50;99313.03;;;0.63;100.00
28588;BME280;15787;49.662;10.162;2023-01-30T08:22:23;99323.41;;;0.54;100.00
28588;BME280;15787;49.662;10.162;2023-01-30T08:24:56;99313.38;;;0.62;100.00
28588;BME280;15787;49.662;10.162;2023-01-30T08:27:29;99287.06;;;0.61;100.00
28588;BME280;15787;49.662;10.162;2023-01-30T08:30:04;99301.94;;;0.60;100.00
28588;BME280;15787;49.662;10.162;2023-01-30T08:32:37;99298.63;;;0.70;100.00
28588;BME280;15787;49.662;10.162;2023-01-30T08:35:09;99292.47;;;0.57;100.00
28588;BME280;15787;49.662;10.162;2023-01-30T08:37:42;99274.56;;;0.63;100.00
28588;BME280;15787;49.662;10.162;2023-01-30T08:40:15;99265.47;;;0.79;100.00
28588;BME280;15787;49.662;10.162;2023-01-30T08:42:49;99261.69;;;0.68;100.00
28588;BME280;15787;49.662;10.162;2023-01-30T08:45:23;99271.81;;;0.63;100.00
28588;BME280;15787;49.662;10.162;2023-01-30T08:47:57;99272.09;;;0.78;100.00
28588;BME280;15787;49.662;10.162;2023-01-30T08:50:30;99272.75;;;0.71;100.00
28588;BME280;15787;49.662;10.162;2023-01-30T08:53:04;99266.88;;;0.73;100.00
28588;BME280;15787;49.662;10.162;2023-01-30T08:55:37;99271.16;;;0.70;100.00
28588;BME280;15787;49.662;10.162;2023-01-30T08:58:10;99264.50;;;0.71;100.00
28588;BME280;15787;49.662;10.162;2023-01-30T09:00:44;99272.91;;;0.78;100.00
28588;BME280;15787;49.662;10.162;2023-01-30T09:03:19;99258.16;;;0.86;100.00
28588;BME280;15787;49.662;10.162;2023-01-30T09:05:53;99240.06;;;0.85;100.00
28588;BME280;15787;49.662;10.162;2023-01-30T09:08:26;99229.56;;;0.91;100.00
28588;BME280;15787;49.662;10.162;2023-01-30T09:11:00;99225.34;;;0.97;100.00
28588;BME280;15787;49.662;10.162;2023-01-30T09:13:34;99246.84;;;1.10;100.00
28588;BME280;15787;49.662;10.162;2023-01-30T09:16:08;99239.91;;;0.97;100.00
28588;BME280;15787;49.662;10.162;2023-01-30T09:18:43;99236.34;;;0.97;100.00
28588;BME280;15787;49.662;10.162;2023-01-30T09:21:16;99232.28;;;1.10;100.00
28588;BME280;15787;49.662;10.162;2023-01-30T09:23:49;99228.00;;;1.12;100.00
28588;BME280;15787;49.662;10.162;2023-01-30T09:26:22;99218.41;;;1.22;100.00
28588;BME280;15787;49.662;10.162;2023-01-30T09:28:55;99228.91;;;1.16;100.00
28588;BME280;15787;49.662;10.162;2023-01-30T09:31:29;99222.91;;;1.34;100.00
28588;BME280;15787;49.662;10.162;2023-01-30T09:34:02;99229.16;;;1.31;100.00
28588;BME280;15787;49.662;10.162;2023-01-30T09:36:35;99227.69;;;1.37;100.00
28588;BME280;15787;49.662;10.162;2023-01-30T09:39:10;99204.50;;;1.38;100.00
28588;BME280;15787;49.662;10.162;2023-01-30T09:44:52;99216.69;;;1.37;100.00
28588;BME280;15787;49.662;10.162;2023-01-30T09:47:38;99217.91;;;1.39;100.00
28588;BME280;15787;49.662;10.162;2023-01-30T09:50:24;99202.97;;;1.40;100.00
28588;BME280;15787;49.662;10.162;2023-01-30T09:53:12;99197.56;;;1.44;100.00
28588;BME280;15787;49.662;10.162;2023-01-30T09:55:46;99201.59;;;1.50;100.00
28588;BME280;15787;49.662;10.162;2023-01-30T09:58:21;99209.34;;;1.44;100.00
28588;BME280;15787;49.662;10.162;2023-01-30T10:01:02;99196.94;;;1.54;100.00
28588;BME280;15787;49.662;10.162;2023-01-30T10:03:48;99208.13;;;1.64;100.00
28588;BME280;15787;49.662;10.162;2023-01-30T10:06:25;99194.97;;;1.54;100.00
28588;BME280;15787;49.662;10.162;2023-01-30T10:09:02;99192.72;;;1.60;100.00
28588;BME280;15787;49.662;10.162;2023-01-30T10:11:49;99181.72;;;1.60;100.00
28588;BME280;15787;49.662;10.162;2023-01-30T10:14:41;99167.34;;;1.70;100.00
28588;BME280;15787;49.662;10.162;2023-01-30T10:17:28;99167.13;;;1.82;100.00
28588;BME280;15787;49.662;10.162;2023-01-30T10:20:20;99174.53;;;1.78;100.00
28588;BME280;15787;49.662;10.162;2023-01-30T10:23:06;99170.13;;;1.73;100.00
28588;BME280;15787;49.662;10.162;2023-01-30T10:25:46;99168.06;;;1.67;100.00
28588;BME280;15787;49.662;10.162;2023-01-30T10:28:23;99182.41;;;1.79;100.00
28588;BME280;15787;49.662;10.162;2023-01-30T10:31:03;99167.50;;;1.80;100.00
28588;BME280;15787;49.662;10.162;2023-01-30T10:33:41;99170.72;;;1.86;100.00
28588;BME280;15787;49.662;10.162;2023-01-30T10:36:20;99184.16;;;1.91;100.00
28588;BME280;15787;49.662;10.162;2023-01-30T10:38:58;99156.53;;;1.84;100.00
28588;BME280;15787;49.662;10.162;2023-01-30T10:41:36;99161.28;;;1.87;100.00
28588;BME280;15787;49.662;10.162;2023-01-30T10:44:12;99166.69;;;1.80;100.00
28588;BME280;15787;49.662;10.162;2023-01-30T10:47:01;99175.63;;;1.73;100.00
28588;BME280;15787;49.662;10.162;2023-01-30T10:49:39;99184.75;;;1.77;100.00
28588;BME280;15787;49.662;10.162;2023-01-30T10:52:28;99187.09;;;1.75;100.00
28588;BME280;15787;49.662;10.162;2023-01-30T10:55:10;99200.16;;;1.82;100.00
28588;BME280;15787;49.662;10.162;2023-01-30T10:58:05;99209.31;;;1.89;100.00
28588;BME280;15787;49.662;10.162;2023-01-30T11:00:49;99202.50;;;1.80;100.00
28588;BME280;15787;49.662;10.162;2023-01-30T11:03:33;99178.22;;;1.89;100.00
28588;BME280;15787;49.662;10.162;2023-01-30T11:06:11;99192.31;;;1.84;100.00
28588;BME280;15787;49.662;10.162;2023-01-30T11:08:49;99193.91;;;1.85;100.00
28588;BME280;15787;49.662;10.162;2023-01-30T11:11:25;99182.34;;;1.76;100.00
28588;BME280;15787;49.662;10.162;2023-01-30T11:14:04;99198.53;;;1.77;100.00
28588;BME280;15787;49.662;10.162;2023-01-30T11:16:43;99193.38;;;1.76;100.00
28588;BME280;15787;49.662;10.162;2023-01-30T11:19:18;99202.06;;;1.78;100.00
28588;BME280;15787;49.662;10.162;2023-01-30T11:21:55;99210.50;;;1.66;100.00
28588;BME280;15787;49.662;10.162;2023-01-30T11:24:39;99219.75;;;1.77;100.00
28588;BME280;15787;49.662;10.162;2023-01-30T11:27:17;99220.88;;;1.76;100.00
28588;BME280;15787;49.662;10.162;2023-01-30T11:30:03;99214.97;;;1.74;100.00
28588;BME280;15787;49.662;10.162;2023-01-30T11:32:36;99207.69;;;1.85;100.00
28588;BME280;15787;49.662;10.162;2023-01-30T11:35:23;99187.22;;;1.86;100.00
28588;BME280;15787;49.662;10.162;2023-01-30T11:38:11;99192.28;;;1.80;100.00
28588;BME280;15787;49.662;10.162;2023-01-30T11:40:46;99192.28;;;1.80;100.00
28588;BME280;15787;49.662;10.162;2023-01-30T11:43:23;99195.38;;;1.79;100.00
28588;BME280;15787;49.662;10.162;2023-01-30T11:45:58;99199.00;;;1.83;100.00
28588;BME280;15787;49.662;10.162;2023-01-30T11:48:33;99191.38;;;1.73;100.00
28588;BME280;15787;49.662;10.162;2023-01-30T11:51:27;99205.97;;;1.77;100.00
28588;BME280;15787;49.662;10.162;2023-01-30T11:54:03;99210.66;;;1.99;100.00
28588;BME280;15787;49.662;10.162;2023-01-30T11:56:40;99208.00;;;1.80;100.00
28588;BME280;15787;49.662;10.162;2023-01-30T11:59:23;99214.53;;;1.72;100.00
28588;BME280;15787;49.662;10.162;2023-01-30T12:02:02;99208.66;;;1.73;100.00
28588;BME280;15787;49.662;10.162;2023-01-30T12:04:36;99203.59;;;1.75;100.00
28588;BME280;15787;49.662;10.162;2023-01-30T12:07:16;99211.16;;;1.82;100.00
28588;BME280;15787;49.662;10.162;2023-01-30T12:09:52;99218.72;;;1.88;100.00
28588;BME280;15787;49.662;10.162;2023-01-30T12:12:29;99223.16;;;1.93;100.00
28588;BME280;15787;49.662;10.162;2023-01-30T12:15:17;99215.97;;;1.88;100.00
28588;BME280;15787;49.662;10.162;2023-01-30T12:17:58;99204.34;;;1.99;100.00
28588;BME280;15787;49.662;10.162;2023-01-30T12:20:44;99184.81;;;2.07;100.00
28588;BME280;15787;49.662;10.162;2023-01-30T12:23:24;99182.28;;;1.95;100.00
28588;BME280;15787;49.662;10.162;2023-01-30T12:26:04;99182.56;;;2.16;100.00
28588;BME280;15787;49.662;10.162;2023-01-30T12:28:46;99189.50;;;2.33;100.00
28588;BME280;15787;49.662;10.162;2023-01-30T12:31:24;99199.81;;;2.39;100.00
28588;BME280;15787;49.662;10.162;2023-01-30T12:33:58;99192.19;;;2.29;100.00
28588;BME280;15787;49.662;10.162;2023-01-30T12:36:40;99189.09;;;2.31;100.00
28588;BME280;15787;49.662;10.162;2023-01-30T12:39:28;99167.03;;;2.31;100.00
28588;BME280;15787;49.662;10.162;2023-01-30T12:42:33;99177.94;;;2.24;100.00
28588;BME280;15787;49.662;10.162;2023-01-30T12:45:20;99168.75;;;2.13;100.00
28588;BME280;15787;49.662;10.162;2023-01-30T12:48:20;99177.81;;;2.13;100.00
28588;BME280;15787;49.662;10.162;2023-01-30T12:51:04;99187.25;;;2.12;100.00
28588;BME280;15787;49.662;10.162;2023-01-30T12:53:57;99188.84;;;2.13;100.00
28588;BME280;15787;49.662;10.162;2023-01-30T12:56:43;99183.78;;;2.19;100.00
28588;BME280;15787;49.662;10.162;2023-01-30T12:59:24;99184.97;;;2.18;100.00
28588;BME280;15787;49.662;10.162;2023-01-30T13:02:15;99187.19;;;2.09;100.00
28588;BME280;15787;49.662;10.162;2023-01-30T13:05:09;99183.38;;;2.17;100.00
28588;BME280;15787;49.662;10.162;2023-01-30T13:08:17;99189.09;;;2.05;100.00
28588;BME280;15787;49.662;10.162;2023-01-30T13:10:59;99194.22;;;2.06;100.00
28588;BME280;15787;49.662;10.162;2023-01-30T13:13:40;99186.41;;;2.08;100.00
28588;BME280;15787;49.662;10.162;2023-01-30T13:16:22;99183.75;;;2.15;100.00
28588;BME280;15787;49.662;10.162;2023-01-30T13:19:03;99180.66;;;2.20;100.00
28588;BME280;15787;49.662;10.162;2023-01-30T13:21:45;99178.06;;;2.61;100.00
28588;BME280;15787;49.662;10.162;2023-01-30T13:24:26;99187.22;;;2.68;100.00
28588;BME280;15787;49.662;10.162;2023-01-30T13:27:12;99182.81;;;2.64;100.00
28588;BME280;15787;49.662;10.162;2023-01-30T13:29:47;99193.13;;;2.70;100.00
28588;BME280;15787;49.662;10.162;2023-01-30T13:32:29;99198.19;;;2.65;100.00
28588;BME280;15787;49.662;10.162;2023-01-30T13:35:14;99196.34;;;2.76;100.00
28588;BME280;15787;49.662;10.162;2023-01-30T13:37:50;99200.66;;;2.73;100.00
28588;BME280;15787;49.662;10.162;2023-01-30T13:40:27;99204.56;;;2.69;100.00
28588;BME280;15787;49.662;10.162;2023-01-30T13:43:09;99198.28;;;2.72;100.00
28588;BME280;15787;49.662;10.162;2023-01-30T13:45:44;99187.66;;;2.74;100.00